Station JMLA2 - Juneau AML Dock Image indicating link to RSS feed of recent meteorological observations for station JMLA2


Conditions at JMLA2 as of
(12:22 pm AKDT)
2022 GMT on 05/24/2024:
     

Click on the graph icon in the table below to see a time series plot of the last five days of that observation.

5-day plot - Wind Direction Wind Direction (WDIR): NW ( 320 deg true )
5-day plot - Wind Speed Wind Speed (WSPD): 7.0 kts
5-day plot - Wind Gust Wind Gust (GST): 11.1 kts
5-day plot - Air Temperature Air Temperature (ATMP): 47.8 °F
5-day plot - Dew Point Dew Point (DEWP): 41.5 °F
5-day plot - Wind Chill Wind Chill (CHILL): 44.1 °F
5-day plot - Wind Speed at 10 Meters Wind Speed at 10 meters (WSPD10M): 7.8 kts
5-day plot - Wind Speed at 20 Meters Wind Speed at 20 meters (WSPD20M): 7.8 kts
5-day plot -  Wind Speed, Wind Gust and Atmospheric Pressure Combined plot of Wind Speed, Gust, and Air Pressure
Previous observations
TIME
(AKDT)
5-day plot - Wind Direction
WDIR
 
5-day plot - Wind Speed
WSPD
kts
5-day plot - Wind Gust
GST
kts
5-day plot - Wave Height
WVHT
ft
5-day plot - Dominant Wave Period
DPD
sec
5-day plot - Average Wave Period
APD
sec
5-day plot - Mean Wave Direction
MWD
 
5-day plot - Atmospheric Pressure
PRES
in
5-day plot - Pressure Tendency
PTDY
in
5-day plot - Air Temperature
ATMP
°F
5-day plot - Water Temperature
WTMP
°F
5-day plot - Dew Point
DEWP
°F
5-day plot - Salinity
SAL
psu
5-day plot - Visibility
VIS
nmi
5-day plot - Tide (above MLLW)
TIDE
ft
2024-05-24 12:12 pm NW 7.0 12.0------ 48.0- 41.9---
2024-05-24 12:02 pmNNW 7.0 11.1------ 48.2- 41.7---
2024-05-24 11:52 amWNW 5.1 9.9------ 49.3- 39.7---
2024-05-24 11:42 amSSE 1.9 4.1------ 50.2- 37.9---
2024-05-24 11:32 amESE 2.9 5.1------ 50.0- 37.9---
2024-05-24 11:22 am SE 1.9 6.0------ 50.0- 38.3---
2024-05-24 11:12 amESE 1.9 4.1------ 49.8- 38.5---
2024-05-24 11:02 am SE 2.9 5.1------ 49.8- 38.5---
2024-05-24 10:52 amESE 1.9 4.1------ 49.8- 38.8---
2024-05-24 10:42 am NE 1.0 2.9------ 49.5- 39.0---
2024-05-24 10:32 am NE 1.9 4.1------ 49.1- 39.0---
2024-05-24 10:22 amNNE 2.9 6.0------ 48.9- 39.6---
2024-05-24 10:12 amNNE 1.9 5.1------ 48.6- 39.7---
2024-05-24 10:02 am N 1.9 5.1------ 48.2- 40.5---
2024-05-24 09:52 am N 2.9 5.1------ 47.8- 40.6---
2024-05-24 09:42 am N 2.9 5.1------ 47.7- 40.8---
2024-05-24 09:32 am N 2.9 6.0------ 47.1- 41.2---
2024-05-24 09:22 amNNW 4.1 6.0------ 46.9- 41.7---
2024-05-24 09:12 amNNW 4.1 7.0------ 47.1- 41.5---
2024-05-24 09:02 am N 4.1 6.0------ 47.3- 41.2---
2024-05-24 08:52 amNNE 2.9 6.0------ 47.1- 41.5---
2024-05-24 08:42 am N 2.9 5.1------ 46.4- 42.3---
2024-05-24 08:32 am N 2.9 5.1------ 46.2- 42.3---
2024-05-24 08:22 amNNW 2.9 4.1------ 45.9- 42.1---
2024-05-24 08:12 am NW 1.9 4.1------ 45.9- 42.1---
2024-05-24 08:02 amNNW 1.9 4.1------ 45.3- 42.6---
2024-05-24 07:52 amNNW 2.9 5.1------ 45.1- 42.8---
2024-05-24 07:42 am N 4.1 5.1------ 45.0- 43.0---
2024-05-24 07:32 amNNW 4.1 6.0------ 44.6- 43.2---
2024-05-24 07:22 am N 4.1 6.0------ 44.6- 43.3---
2024-05-24 07:12 am N 4.1 6.0------ 44.4- 43.2---
2024-05-24 07:02 amNNW 2.9 5.1------ 44.2- 43.2---
2024-05-24 06:52 am N 2.9 4.1------ 44.2- 43.5---
2024-05-24 06:42 amNNW 2.9 4.1------ 44.1- 43.3---
2024-05-24 06:32 amNNW 2.9 5.1------ 44.1- 43.2---
2024-05-24 06:22 am N 4.1 6.0------ 44.1- 43.0---
2024-05-24 06:12 amNNW 2.9 5.1------ 43.9- 43.2---
2024-05-24 06:02 amNNW 4.1 5.1------ 44.1- 43.0---
2024-05-24 05:52 am N 2.9 5.1------ 43.9- 43.2---
2024-05-24 05:42 am N 2.9 4.1------ 43.7- 43.2---
2024-05-24 05:32 amNNW 2.9 5.1------ 43.7- 43.2---
2024-05-24 05:22 amNNW 4.1 5.1------ 43.7- 43.3---
2024-05-24 05:12 amNNW 4.1 5.1------ 43.7- 43.3---
2024-05-24 05:02 am NW 4.1 6.0------ 43.5- 43.3---
2024-05-24 04:52 amWNW 5.1 7.0------ 43.5- 43.2---
2024-05-24 04:42 amNNW 4.1 7.0------ 43.7- 43.2---
2024-05-24 04:32 amNNW 4.1 6.0------ 43.7- 43.2---
2024-05-24 04:22 amNNW 4.1 6.0------ 43.7- 42.8---
2024-05-24 04:12 am N 2.9 6.0------ 43.7- 43.0---
2024-05-24 04:02 amNNW 2.9 5.1------ 43.7- 43.2---
2024-05-24 03:52 am NW 4.1 5.1------ 43.7- 43.2---
2024-05-24 03:42 am N 2.9 4.1------ 43.7- 43.2---
2024-05-24 03:32 am N 2.9 4.1------ 43.7- 43.2---
2024-05-24 03:22 am N 2.9 4.1------ 43.9- 43.3---
2024-05-24 03:12 amNNW 2.9 4.1------ 44.1- 43.0---
2024-05-24 03:02 am N 2.9 4.1------ 44.2- 43.0---
2024-05-24 02:52 am N 1.9 4.1------ 44.2- 43.0---
2024-05-24 02:42 am N 2.9 5.1------ 44.2- 43.0---
2024-05-24 02:32 amNNE 2.9 4.1------ 44.2- 43.0---
2024-05-24 02:22 am N 2.9 4.1------ 44.2- 42.6---
2024-05-24 02:12 amNNW 2.9 4.1------ 44.2- 42.8---
2024-05-24 02:02 amNNE 5.1 6.0------ 44.4- 42.6---
2024-05-24 01:52 am NE 2.9 6.0------ 44.4- 43.0---
2024-05-24 01:42 am N 1.9 4.1------ 44.6- 42.6---
2024-05-24 01:32 am NW 2.9 5.1------ 44.6- 43.0---
2024-05-24 01:22 am N 1.9 2.9------ 44.8- 43.5---
2024-05-24 01:12 amNNE 1.9 4.1------ 45.0- 43.7---
2024-05-24 01:02 amWNW 1.9 6.0------ 45.0- 43.3---
2024-05-24 12:52 amWNW 4.1 6.0------ 44.8- 43.2---
2024-05-24 12:42 amWNW 5.1 8.9------ 45.0- 43.5---
2024-05-24 12:32 am NW 6.0 12.0------ 45.3- 43.5---
2024-05-24 12:22 am NW 4.1 7.0------ 45.7- 43.9---
2024-05-24 12:12 am NW 4.1 8.0------ 46.2- 43.7---
2024-05-24 12:02 am NW 1.9 6.0------ 46.4- 43.9---
2024-05-23 11:52 pmWNW 4.1 8.0------ 46.6- 43.7---
2024-05-23 11:42 pm W 8.0 11.1------ 46.8- 43.3---
2024-05-23 11:32 pm W 6.0 9.9------ 46.6- 44.1---
2024-05-23 11:22 pm NW 2.9 8.0------ 46.6- 44.8---
2024-05-23 11:12 pm W 5.1 8.9------ 46.9- 44.2---
2024-05-23 11:02 pm W 6.0 9.9------ 46.6- 44.4---
2024-05-23 10:52 pm W 5.1 9.9------ 46.6- 44.8---
2024-05-23 10:42 pmNNW 4.1 6.0------ 46.2- 45.7---
2024-05-23 10:32 pmNNW 4.1 5.1------ 46.8- 46.0---
2024-05-23 10:22 pmNNW 2.9 5.1------ 47.1- 45.7---
2024-05-23 10:12 pm N 2.9 6.0------ 47.3- 45.1---
2024-05-23 10:02 pmNNW 2.9 5.1------ 47.5- 45.1---
2024-05-23 09:52 pmNNW 2.9 6.0------ 47.7- 44.8---
2024-05-23 09:42 pm N 2.9 5.1------ 47.7- 45.9---
2024-05-23 09:32 pmNNE 2.9 5.1------ 48.0- 46.2---
2024-05-23 09:22 pm NW 2.9 5.1------ 48.4- 45.9---
2024-05-23 09:12 pm N 2.9 6.0------ 48.6- 46.4---
2024-05-23 09:02 pm N 1.9 4.1------ 48.6- 47.1---
2024-05-23 08:52 pm N 1.9 2.9------ 48.6- 47.8---
2024-05-23 08:42 pm SE 1.9 2.9------ 48.6- 47.7---
2024-05-23 08:32 pm- 0.0 1.9------ 48.6- 47.8---
2024-05-23 08:27 pm S 2.9 6.0------ 48.6- 47.7---
2024-05-23 08:22 pm S 2.9 6.0------ 48.6- 47.7---
2024-05-23 08:02 pm SE 7.0 13.0------ 48.7- 47.5---
2024-05-23 07:52 pm SE 6.0 11.1------ 48.6- 47.5---
2024-05-23 07:42 pm S 5.1 9.9------ 48.6- 47.5---
2024-05-23 07:32 pm SE 8.0 13.0------ 48.7- 47.3---
2024-05-23 07:22 pmSSE 8.9 14.0------ 48.9- 47.5---
2024-05-23 07:12 pm SE 9.9 15.9------ 49.1- 47.3---
2024-05-23 07:02 pm SE 12.0 15.9------ 49.1- 47.3---
2024-05-23 06:52 pm SE 12.0 21.0------ 49.1- 47.5---
2024-05-23 06:42 pm SE 9.9 17.1------ 48.9- 47.5---
2024-05-23 06:32 pm SE 11.1 17.1------ 48.9- 47.5---
2024-05-23 06:22 pm SE 11.1 15.9------ 49.1- 47.5---
2024-05-23 06:12 pm SE 9.9 18.1------ 49.1- 47.5---
2024-05-23 06:02 pm SE 8.9 15.9------ 49.1- 47.5---
2024-05-23 05:52 pm SE 11.1 18.1------ 49.1- 47.5---
2024-05-23 05:42 pm SE 13.0 18.1------ 49.3- 47.3---
2024-05-23 05:32 pm SE 11.1 17.1------ 49.3- 47.7---
2024-05-23 05:22 pm SE 9.9 15.0------ 49.1- 47.7---
2024-05-23 05:12 pm SE 9.9 15.9------ 49.3- 47.7---
2024-05-23 05:02 pm SE 9.9 17.1------ 49.3- 47.7---
2024-05-23 04:52 pm SE 9.9 15.0------ 49.1- 47.8---
2024-05-23 04:42 pm SE 11.1 15.0------ 48.9- 47.5---
2024-05-23 04:32 pm SE 11.1 15.9------ 49.3- 47.5---
2024-05-23 04:22 pm SE 11.1 15.0------ 49.3- 47.5---
2024-05-23 04:12 pm SE 9.9 17.1------ 49.3- 47.5---
2024-05-23 03:52 pm SE 9.9 17.1------ 49.5- 47.5---
2024-05-23 03:42 pm SE 9.9 15.9------ 49.3- 47.5---
2024-05-23 03:32 pm SE 11.1 15.9------ 49.3- 47.3---
2024-05-23 03:22 pm SE 11.1 15.9------ 49.3- 47.3---
2024-05-23 03:12 pm SE 12.0 17.1------ 49.5- 47.3---
2024-05-23 03:02 pm SE 11.1 15.9------ 49.5- 47.3---
2024-05-23 02:52 pm SE 12.0 15.9------ 49.5- 47.3---
2024-05-23 02:42 pm SE 14.0 20.0------ 49.6- 47.5---
2024-05-23 02:32 pm SE 13.0 20.0------ 49.6- 47.5---
2024-05-23 02:22 pm SE 13.0 18.1------ 49.6- 47.5---
2024-05-23 02:12 pm SE 13.0 19.0------ 49.8- 47.7---
2024-05-23 02:02 pm SE 13.0 19.0------ 49.6- 47.5---
2024-05-23 01:52 pm SE 12.0 19.0------ 49.8- 47.7---
2024-05-23 01:42 pm SE 12.0 19.0------ 49.8- 47.8---
2024-05-23 01:32 pm SE 13.0 20.0------ 49.8- 47.8---
2024-05-23 01:22 pm SE 13.0 19.0------ 49.8- 47.8---
2024-05-23 01:12 pmSSE 8.9 17.1------ 49.1- 47.8---
2024-05-23 01:02 pmSSE 9.9 14.0------ 49.1- 47.8---
2024-05-23 12:52 pmSSE 8.9 15.0------ 49.1- 47.7---
2024-05-23 12:42 pmSSE 8.0 13.0------ 48.9- 47.8---
2024-05-23 12:32 pm S 7.0 12.0------ 48.9- 47.8---
2024-05-23 12:22 pm S 6.0 11.1------ 48.7- 47.7---
2024-05-23 12:12 pm S 6.0 12.0------ 48.9- 47.7---
2024-05-23 12:02 pm S 6.0 13.0------ 48.9- 47.7---
2024-05-23 11:52 am S 5.1 9.9------ 48.9- 47.8---